Date,TemperatureHighF,TemperatureAvgF,TemperatureLowF,DewpointHighF,DewpointAvgF,DewpointLowF,HumidityHigh,HumidityAvg,HumidityLow,PressureMaxIn,PressureMinIn,WindSpeedMaxMPH,WindSpeedAvgMPH,GustSpeedMaxMPH,PrecipitationSumIn
2013-1-1,32.5,2.2,-17.1,7.9,-6.9,-22.9,92,68,35,29.92,29.72,5,1,0,0.00
2013-1-2,20.8,-1.7,-20.0,0.1,-12.6,-26.2,85,62,34,29.97,29.79,5,2,0,0.00
2013-1-3,20.7,-10.5,-31.5,-4.5,-21.6,-39.6,76,60,27,30.12,29.95,4,1,0,0.00
2013-1-4,23.7,-3.9,-26.9,-1.7,-16.1,-34.1,81,59,26,30.08,29.82,4,0,0,0.00
2013-1-5,27.5,-5.0,-27.0,1.7,-16.2,-34.2,85,61,32,30.15,29.93,4,2,0,0.00
2013-1-6,12.7,-5.8,-26.7,-0.4,-13.5,-33.7,88,69,55,30.16,29.82,5,1,0,0.00
2013-1-7,19.4,-2.3,-16.4,4.3,-9.8,-22.4,84,71,51,29.90,29.70,5,1,0,0.00
2013-1-8,17.8,6.6,-15.5,5.2,-2.2,-21.1,90,67,54,30.07,29.79,6,2,0,0.00
2013-1-9,22.1,1.2,-16.8,9.5,-6.5,-22.2,95,71,54,30.25,29.94,5,2,0,0.00
2013-1-10,19.8,2.4,-15.7,9.0,-3.4,-21.0,98,77,59,29.92,29.26,4,1,0,0.00
2013-1-11,22.6,10.3,-4.5,17.8,3.8,-7.8,98,78,40,29.43,29.00,14,5,0,0.00
2013-1-12,7.9,-8.8,-24.5,-4.1,-16.4,-31.6,92,69,48,29.55,29.41,4,1,0,0.00
2013-1-13,5.5,-10.0,-25.2,-6.5,-17.5,-32.5,87,69,54,29.60,29.46,4,1,0,0.00
2013-1-14,5.5,-11.9,-26.0,-7.3,-19.7,-33.3,76,68,51,29.73,29.53,4,1,0,0.00
2013-1-15,8.2,-14.6,-34.8,-7.1,-23.4,-43.6,83,64,46,30.06,29.73,4,1,0,0.00
2013-1-16,14.4,-5.0,-19.1,2.5,-12.7,-25.5,90,70,50,30.19,30.03,5,1,0,0.00
2013-1-17,17.8,-3.2,-18.6,7.3,-9.6,-24.6,96,74,54,30.32,30.11,4,1,0,0.00
2013-1-18,17.8,-3.9,-19.8,8.8,-9.3,-26.1,95,77,60,30.24,30.02,4,1,0,0.00
2013-1-19,20.1,-3.9,-20.6,7.7,-10.6,-27.5,92,73,54,30.28,30.08,4,1,0,0.00
2013-1-20,20.3,-4.4,-23.4,5.5,-11.7,-30.2,92,71,52,30.19,29.99,4,1,0,0.00
2013-1-21,22.6,-1.1,-18.8,8.6,-8.3,-25.0,93,72,50,30.17,30.00,6,1,0,0.00
2013-1-22,22.1,-1.3,-18.8,8.2,-8.8,-24.8,93,71,50,30.23,30.06,5,1,0,0.00
2013-1-23,19.4,-1.6,-22.4,6.3,-8.9,-29.0,92,71,50,30.31,30.12,5,1,0,0.00
2013-1-24,30.0,13.3,-8.0,22.1,6.5,-12.3,98,76,52,30.17,29.99,4,1,0,0.00
2013-1-25,43.5,29.8,21.0,35.2,27.3,20.0,98,91,69,30.04,29.91,4,1,0,0.00
2013-1-26,39.0,30.8,24.4,38.5,30.3,23.9,98,98,98,29.93,29.50,7,2,0,0.14
2013-1-27,47.1,34.2,19.6,38.7,31.8,19.1,98,92,69,29.61,29.51,7,2,0,0.24
2013-1-28,39.0,25.0,14.7,33.8,22.5,14.2,98,91,62,29.55,29.34,7,1,0,0.01
2013-1-29,43.0,12.9,-8.5,20.5,5.1,-12.5,98,76,30,29.59,29.30,10,3,0,0.01
2013-1-30,30.0,12.7,-14.3,17.6,6.9,-19.1,98,79,45,29.79,29.58,9,3,0,0.00
2013-1-31,40.8,22.0,2.7,25.9,16.4,2.3,98,82,50,30.01,29.76,8,3,0,0.05
2013-2-1,28.8,8.9,-8.3,18.0,4.9,-11.9,98,85,62,30.08,29.88,6,2,0,0.00
2013-2-2,25.5,6.4,-10.3,15.4,2.1,-14.7,98,84,63,30.25,30.07,5,2,0,0.00
2013-2-3,22.8,6.9,-6.7,13.0,2.7,-9.3,98,84,62,30.13,29.80,4,2,0,0.00
2013-2-4,26.4,11.1,-1.3,18.9,8.2,-3.7,98,89,69,29.91,29.76,5,2,0,0.00
2013-2-5,28.9,7.5,-10.8,16.1,2.4,-15.7,98,81,53,29.99,29.74,5,1,0,0.00
2013-2-6,32.2,10.6,-8.3,19.0,4.7,-11.9,98,78,56,29.79,29.64,4,1,0,0.00
2013-2-7,30.9,16.0,-1.3,22.8,12.8,-4.0,98,88,65,29.95,29.77,8,2,0,0.00
2013-2-8,46.8,20.2,-2.7,29.2,13.7,-5.4,98,79,45,29.84,29.37,14,4,0,0.00
2013-2-9,34.3,23.2,12.0,25.6,19.1,11.5,98,85,60,29.37,29.15,9,3,0,0.02
2013-2-10,28.4,18.0,4.3,18.2,12.3,0.8,98,80,49,29.53,29.30,6,2,0,0.01
2013-2-11,30.9,12.9,-0.2,17.8,8.4,-0.6,98,84,49,29.68,29.50,8,2,0,0.03
2013-2-12,23.5,5.2,-9.4,9.7,-1.3,-13.4,98,76,51,29.86,29.67,6,2,0,0.00
2013-2-13,28.2,6.8,-13.5,16.1,0.2,-17.4,98,76,51,29.93,29.76,6,2,0,0.00
2013-2-14,35.6,13.5,-1.3,22.0,8.4,-2.8,98,82,56,29.95,29.80,9,2,0,0.00
2013-2-15,36.0,13.2,-4.7,16.7,5.3,-6.9,98,75,41,30.12,29.94,19,3,0,0.00
2013-2-16,30.2,9.9,-10.3,15.1,2.9,-14.0,98,76,45,30.18,29.90,7,2,0,0.00
2013-2-17,25.0,8.1,-10.5,18.4,2.1,-15.2,98,78,53,29.91,29.41,7,2,0,0.00
2013-2-18,34.0,18.5,-4.0,21.8,8.6,-8.7,98,69,33,29.83,29.43,10,3,0,0.00
2013-2-19,24.1,4.9,-14.6,8.8,-3.4,-18.7,98,71,41,29.84,29.44,6,2,0,0.00
2013-2-20,34.0,16.5,-0.8,27.0,11.8,-2.6,98,84,51,29.44,29.14,8,3,0,0.00
2013-2-21,42.3,22.7,5.2,28.6,18.6,4.8,98,86,53,29.51,29.20,8,2,0,0.06
2013-2-22,29.3,13.0,0.0,23.3,9.4,-1.0,98,87,56,29.68,29.50,7,2,0,0.02
2013-2-23,29.5,9.1,-14.3,17.2,4.1,-18.4,98,82,50,29.68,29.31,6,2,0,0.00
2013-2-24,28.9,14.3,-0.4,16.0,8.5,-2.8,98,80,42,29.66,29.30,9,3,0,0.05
2013-2-25,25.9,9.8,-4.9,13.0,4.3,-6.9,98,80,56,29.80,29.59,8,3,0,0.02
2013-2-26,27.5,9.5,-9.8,18.0,4.1,-12.6,98,79,62,29.79,29.46,9,2,0,0.01
2013-2-27,23.5,2.8,-16.8,9.3,-3.8,-22.3,98,75,53,29.99,29.79,5,2,0,0.00
2013-2-28,25.3,4.5,-18.8,10.2,-3.2,-24.0,96,72,46,30.12,29.98,5,2,0,0.00
2013-3-1,45.5,24.0,5.9,27.1,16.8,2.0,98,76,48,30.18,30.01,9,4,0,0.00
2013-3-2,37.4,19.1,0.0,24.9,14.2,-0.5,98,83,58,30.28,29.98,7,3,0,0.00
2013-3-3,46.9,25.4,2.8,34.0,19.8,2.4,98,82,46,29.98,29.54,9,3,0,0.00
2013-3-4,46.4,31.2,10.8,38.5,25.8,4.5,98,82,56,29.90,29.48,17,4,0,0.10
2013-3-5,29.8,12.6,-5.8,14.3,4.5,-9.0,98,72,48,30.13,29.91,10,3,0,0.00
2013-3-6,35.4,15.8,-5.8,20.5,8.9,-8.4,98,77,47,29.99,29.69,7,3,0,0.00
2013-3-7,44.1,24.2,4.8,27.7,17.2,4.4,98,77,49,29.81,29.63,7,2,0,0.00
2013-3-8,43.5,29.5,14.4,33.5,23.0,13.9,98,79,53,29.72,29.35,9,2,0,0.00
2013-3-9,41.2,27.7,13.8,27.4,24.0,13.3,98,87,55,29.62,29.29,11,4,0,0.05
2013-3-10,39.0,20.4,-1.3,21.6,13.1,-2.9,98,77,44,29.92,29.63,11,3,0,0.02
2013-3-11,44.2,22.5,0.7,25.0,14.6,-0.2,98,74,42,29.95,29.76,7,3,0,0.00
2013-3-12,49.1,32.1,15.3,31.3,24.8,14.8,98,77,48,30.04,29.85,7,2,0,0.00
2013-3-13,52.3,30.0,11.3,33.6,23.5,10.8,98,80,45,30.17,30.05,7,1,0,0.00
2013-3-14,49.6,33.2,15.6,32.9,25.3,15.1,98,76,47,30.26,30.06,7,2,0,0.00
2013-3-15,56.5,34.6,16.0,35.6,26.4,15.5,98,76,40,30.11,29.78,5,2,0,0.00
2013-3-16,45.1,32.4,22.3,42.3,31.0,21.8,98,95,74,29.79,29.61,9,2,0,0.03
2013-3-17,48.7,33.8,22.8,37.5,25.2,13.3,98,74,33,29.65,29.35,18,4,0,0.09
2013-3-18,44.8,32.4,21.6,21.1,15.3,11.4,70,50,33,29.72,29.57,14,5,0,0.00
2013-3-19,48.9,33.6,21.9,24.0,5.5,-50.9,98,48,1,29.98,29.71,11,3,0,0.00
2013-3-20,47.8,29.4,11.7,36.0,19.1,4.8,98,69,32,30.01,29.65,9,2,0,0.00
2013-3-21,48.2,33.7,19.4,38.9,27.6,13.9,98,81,36,29.64,29.38,12,2,0,0.21
2013-3-22,47.7,27.6,11.8,23.3,13.3,6.8,98,59,30,29.58,29.27,23,4,0,0.00
2013-3-23,27.1,19.8,7.2,15.1,9.2,-0.8,87,64,33,29.74,29.40,11,4,0,0.00
2013-3-24,32.2,15.7,-0.8,11.5,2.3,-7.5,82,57,27,29.81,29.62,14,4,0,0.00
2013-3-25,39.6,19.5,0.0,9.0,1.3,-8.6,75,48,21,29.91,29.79,10,3,0,0.00
2013-3-26,55.0,32.2,13.5,25.0,14.8,2.8,75,51,28,29.90,29.66,14,4,0,0.00
2013-3-27,59.9,41.7,21.7,29.4,20.3,-42.0,98,52,1,29.84,29.70,10,3,0,0.00
2013-3-28,59.7,46.3,24.4,30.7,28.1,23.9,98,52,30,29.94,29.80,10,3,0,0.00
2013-3-29,60.8,40.1,21.4,33.5,28.4,20.9,98,68,32,30.01,29.88,16,3,0,0.00
2013-3-30,61.2,41.6,20.7,35.1,26.7,20.2,98,63,24,30.02,29.82,12,3,0,0.00
2013-3-31,62.4,40.4,19.2,33.1,19.4,-42.1,98,60,1,29.97,29.76,10,2,0,0.00
2013-4-1,63.3,43.4,21.9,38.4,27.8,20.4,98,61,26,29.87,29.61,20,4,0,0.00
2013-4-2,58.8,38.9,21.9,33.8,26.4,2.4,98,69,10,29.77,29.58,14,3,0,0.01
2013-4-3,56.8,40.7,27.1,37.5,28.3,15.3,98,69,22,29.96,29.76,11,3,0,0.00
2013-4-4,64.6,41.0,15.6,32.1,24.1,15.1,98,59,15,30.05,29.83,8,2,0,0.00
2013-4-5,62.6,42.8,22.3,39.6,30.9,21.8,98,68,24,29.88,29.61,14,3,0,0.00
2013-4-6,63.0,43.2,24.1,39.6,29.0,17.6,98,66,20,29.79,29.63,14,4,0,0.00
2013-4-7,57.2,42.2,28.9,38.7,32.8,27.1,98,73,37,29.74,29.51,12,4,0,0.02
2013-4-8,61.2,41.6,29.5,41.0,33.1,25.6,98,78,26,29.54,29.13,19,6,0,0.00
2013-4-9,40.5,31.6,18.1,37.9,28.3,17.6,98,89,58,29.57,29.15,18,7,0,0.03
2013-4-10,36.0,24.4,9.7,25.2,17.0,6.1,98,75,53,29.70,29.56,10,4,0,0.07
2013-4-11,49.5,32.4,16.5,37.4,25.9,16.0,98,79,55,29.68,29.55,9,3,0,0.00
2013-4-12,51.1,36.0,21.7,34.3,26.9,21.2,98,74,33,29.72,29.63,16,3,0,0.00
2013-4-13,61.2,41.3,16.9,38.3,23.8,-40.6,98,60,1,29.72,29.23,18,4,0,0.00
2013-4-14,49.6,38.9,30.2,40.0,28.6,19.9,98,71,33,29.45,29.26,16,5,0,0.25
2013-4-15,59.4,41.7,28.0,39.2,33.5,25.6,98,76,44,29.39,29.27,12,4,0,0.00
2013-4-16,63.7,43.3,22.1,34.3,25.5,-39.9,98,60,1,29.42,29.24,28,8,0,0.01
2013-4-17,47.8,31.6,19.6,36.3,25.4,13.6,98,79,43,29.62,29.31,27,5,0,0.00
2013-4-18,34.5,23.4,11.7,15.0,8.4,3.1,88,55,31,29.96,29.63,11,4,0,0.00
2013-4-19,49.3,28.7,7.7,23.4,15.4,4.8,98,62,33,30.00,29.76,12,3,0,0.00
2013-4-20,48.2,36.9,25.0,38.0,30.9,21.7,98,81,52,29.84,29.66,11,3,0,0.04
2013-4-21,58.5,39.4,19.8,35.9,27.7,17.5,98,69,21,29.92,29.76,11,3,0,0.02
2013-4-22,60.6,46.4,33.8,42.1,31.8,20.8,98,63,22,29.80,29.55,12,4,0,0.01
2013-4-23,45.1,34.3,18.9,31.2,22.9,12.3,98,66,35,29.86,29.60,12,5,0,0.01
2013-4-24,50.4,33.5,15.8,20.6,13.8,6.2,98,48,22,29.93,29.84,11,4,0,0.00
2013-4-25,66.4,40.5,18.5,31.3,22.6,-7.2,98,57,6,29.93,29.68,16,3,0,0.00
2013-4-26,64.9,43.6,19.0,32.1,14.8,-40.8,98,51,1,30.04,29.78,9,2,0,0.00
2013-4-27,68.5,44.1,17.1,31.6,8.4,-40.4,98,47,1,30.11,29.89,13,2,0,0.00
2013-4-28,72.0,48.2,18.3,29.4,8.5,-39.3,98,42,1,29.98,29.71,11,3,0,0.00
2013-4-29,72.9,51.0,22.5,35.9,8.6,-35.9,98,41,1,29.80,29.54,16,4,0,0.00
2013-4-30,74.8,61.4,25.3,34.5,-7.3,-41.6,87,19,1,29.60,29.44,18,6,0,0.00
2013-5-1,56.7,42.1,24.4,39.6,28.7,18.3,98,64,28,30.07,29.46,14,6,0,0.06
2013-5-2,52.5,36.0,12.9,21.5,-3.4,-49.7,98,38,1,30.26,30.09,14,4,0,0.03
2013-5-3,66.2,41.9,12.0,21.1,-6.1,-46.4,98,36,1,30.16,29.73,20,3,0,0.00
2013-5-4,67.8,44.9,17.4,32.8,9.1,-40.9,90,43,1,29.83,29.67,24,5,0,0.00
2013-5-5,64.6,48.9,33.1,34.8,29.0,-1.3,79,50,7,29.85,29.76,14,5,0,0.00
2013-5-6,63.0,45.4,36.9,47.6,37.8,31.6,98,77,41,29.82,29.70,12,5,0,0.12
2013-5-7,61.2,44.3,34.2,46.8,38.6,33.7,98,83,43,29.83,29.72,10,4,0,0.05
2013-5-8,44.1,38.3,32.7,40.1,37.3,32.2,98,96,81,29.84,29.76,9,5,0,0.05
2013-5-9,57.4,44.8,32.2,41.6,36.2,31.7,98,75,52,29.87,29.81,17,4,0,0.18
2013-5-10,64.0,45.1,30.0,41.1,35.9,29.5,98,73,42,30.12,29.93,14,3,0,0.00
2013-5-11,68.5,49.2,26.4,38.7,32.9,25.9,98,61,26,30.21,30.04,9,3,0,0.03
2013-5-12,71.4,60.8,41.2,42.2,34.8,31.5,79,42,24,30.13,29.99,9,4,0,0.00
2013-5-13,79.0,54.0,29.1,44.2,36.4,6.0,98,61,6,30.18,29.98,14,2,0,0.00
2013-5-14,81.3,54.0,31.5,50.4,41.6,31.0,98,70,22,30.03,29.82,17,4,0,0.01
2013-5-15,78.8,50.7,34.7,50.2,42.9,34.2,98,79,29,29.91,29.71,14,4,0,0.01
2013-5-16,77.7,56.1,31.5,46.8,32.1,-31.8,98,56,1,29.85,29.66,11,3,0,0.24
2013-5-17,80.4,56.0,31.1,41.3,10.1,-39.8,98,43,1,29.84,29.64,12,3,0,0.00
2013-5-18,69.1,47.2,28.4,40.2,32.5,19.5,98,63,15,29.81,29.64,13,4,0,0.00
2013-5-19,56.1,39.4,30.9,44.1,36.5,30.4,98,90,52,29.77,29.68,15,3,0,0.12
2013-5-20,63.7,41.8,28.6,43.8,35.9,28.1,98,83,39,29.86,29.71,14,3,0,0.00
2013-5-21,70.3,48.7,25.7,41.1,32.2,25.2,98,61,20,29.90,29.69,10,3,0,0.00
2013-5-22,77.7,56.2,27.9,40.8,27.0,-33.0,98,48,1,29.80,29.61,12,4,0,0.00
2013-5-23,84.7,59.9,28.9,44.4,11.7,-34.5,98,36,1,29.81,29.65,18,4,0,0.00
2013-5-24,81.1,57.7,25.3,35.6,6.2,-36.9,98,36,1,29.91,29.76,12,3,0,0.00
2013-5-25,81.9,56.6,27.3,34.8,8.1,-36.1,98,37,1,29.95,29.75,9,3,0,0.00
2013-5-26,81.3,57.5,29.5,38.9,4.0,-41.5,88,34,1,29.90,29.69,9,2,0,0.00
2013-5-27,77.9,54.8,26.4,32.3,4.8,-40.1,90,36,1,29.83,29.60,14,3,0,0.00
2013-5-28,73.2,53.1,27.1,36.1,28.7,-32.9,95,47,1,29.69,29.44,16,3,0,0.00
2013-5-29,65.7,49.4,37.4,45.9,37.2,29.1,98,66,32,29.59,29.46,13,4,0,0.02
2013-5-30,65.5,48.7,27.3,36.0,28.0,22.1,98,53,20,29.72,29.57,16,4,0,0.00
2013-5-31,66.2,54.9,36.9,34.7,-4.8,-45.3,52,22,1,29.90,29.71,17,5,0,0.00
2013-6-1,73.2,50.7,26.1,31.6,17.6,-35.2,78,40,1,30.03,29.88,7,2,0,0.00
2013-6-2,82.0,56.3,25.7,37.0,17.1,-32.2,98,42,1,30.02,29.72,14,3,0,0.00
2013-6-3,81.7,58.0,30.9,41.8,28.5,-30.9,98,48,1,29.83,29.71,16,3,0,0.00
2013-6-4,80.1,59.0,33.4,45.3,39.4,32.9,98,53,21,29.91,29.76,15,3,0,0.02
2013-6-5,79.9,64.8,37.4,44.1,11.6,-36.3,98,32,1,29.90,29.76,27,4,0,0.00
2013-6-6,78.8,55.8,30.9,42.7,34.9,29.7,98,53,22,29.96,29.83,8,2,0,0.00
2013-6-7,79.2,71.3,60.6,40.6,37.6,32.8,45,30,21,29.79,29.74,10,5,0,0.00
2013-6-8,82.4,71.5,50.0,46.6,40.4,30.9,67,35,17,29.84,29.71,12,5,0,0.00
2013-6-9,87.3,62.8,34.0,44.7,26.1,-27.7,98,47,1,29.98,29.83,12,3,0,0.00
2013-6-10,94.3,61.7,35.4,46.6,27.6,-25.3,98,51,1,30.00,29.76,9,2,0,0.00
2013-6-11,84.9,65.2,46.0,42.0,9.2,-33.1,76,28,1,29.97,29.80,10,3,0,0.00
2013-6-12,88.7,62.1,35.1,43.5,15.2,-34.0,84,38,1,30.09,29.90,9,2,0,0.00
2013-6-13,85.8,61.2,39.4,45.2,33.7,-25.7,83,45,1,30.06,29.84,9,3,0,0.00
2013-6-14,85.5,67.0,43.9,50.2,17.0,-39.0,98,34,1,29.94,29.73,14,3,0,0.00
2013-6-15,81.9,59.7,29.7,43.8,29.2,-29.3,86,41,1,29.98,29.85,11,3,0,0.00
2013-6-16,78.3,61.5,36.9,54.7,44.8,36.4,98,58,31,30.06,29.92,13,4,0,0.02
2013-6-17,83.7,65.1,45.0,50.4,37.6,-29.4,96,46,1,30.04,29.89,11,4,0,0.00
2013-6-18,84.4,63.8,39.4,50.5,35.2,-35.9,98,46,1,30.00,29.71,13,4,0,0.00
2013-6-19,87.3,62.8,32.7,41.0,12.0,-33.2,94,34,1,29.84,29.62,10,4,0,0.00
2013-6-20,85.1,61.4,32.0,35.4,7.5,-33.7,78,29,1,29.86,29.69,9,2,0,0.00
2013-6-21,83.7,59.8,30.9,35.9,14.9,-33.6,90,36,1,29.90,29.72,11,2,0,0.00
2013-6-22,83.1,60.9,32.5,39.7,13.9,-36.7,93,36,1,29.88,29.68,10,3,0,0.00
2013-6-23,84.7,61.1,30.7,45.1,24.7,-29.3,98,40,1,29.89,29.67,10,3,0,0.00
2013-6-24,79.5,53.8,34.5,40.0,21.3,-34.8,89,51,1,29.85,29.69,9,2,0,0.00
2013-6-25,81.7,63.4,50.2,40.7,37.7,32.8,63,42,20,29.96,29.77,11,4,0,0.00
2013-6-26,88.9,63.8,35.4,44.8,35.2,-25.4,98,48,1,30.08,29.92,10,3,0,0.00
2013-6-27,93.2,71.6,45.9,49.5,36.2,-21.9,79,38,1,30.19,30.01,8,3,0,0.00
2013-6-28,91.2,68.8,43.3,56.1,44.5,-8.8,98,49,2,30.23,29.98,14,4,0,0.00
2013-6-29,88.7,70.7,50.2,53.6,49.5,42.9,93,50,24,30.14,29.90,18,6,0,0.00
2013-6-30,88.9,65.0,41.5,56.0,48.7,41.0,98,62,22,30.10,29.87,16,5,0,0.00
2013-7-1,87.6,66.0,41.2,54.2,43.6,-25.3,98,56,1,30.14,29.91,13,4,0,0.00
2013-7-2,88.5,67.2,45.7,53.0,43.6,-25.4,98,52,1,30.09,29.85,14,4,0,0.00
2013-7-3,85.8,64.4,39.4,51.6,41.1,-25.7,98,53,1,30.02,29.77,15,4,0,0.00
2013-7-4,85.8,69.1,50.5,51.3,47.1,42.9,79,49,23,29.95,29.73,9,3,0,0.00
2013-7-5,87.8,74.5,58.1,56.0,49.6,45.6,72,43,27,29.82,29.68,8,4,0,0.00
2013-7-6,82.9,72.8,54.3,54.8,51.3,48.6,81,48,35,29.90,29.75,12,6,0,0.00
2013-7-7,87.6,70.8,53.6,57.1,52.1,48.1,95,55,29,30.01,29.81,11,4,0,0.00
2013-7-8,87.1,67.4,52.7,58.4,50.9,33.7,98,62,16,30.09,29.95,10,3,0,0.00
2013-7-9,89.2,68.2,41.7,55.0,41.1,-24.8,98,48,1,30.20,29.97,10,3,0,0.00
2013-7-10,90.1,69.8,52.2,58.2,49.7,42.5,81,52,22,30.13,29.87,15,4,0,0.00
2013-7-11,90.3,68.6,47.8,57.2,51.4,45.8,98,58,22,30.07,29.82,14,3,0,0.00
2013-7-12,81.7,62.9,51.1,63.2,57.6,50.6,98,85,43,30.01,29.89,13,2,0,0.08
2013-7-13,81.7,65.3,54.0,61.4,57.1,53.4,98,77,48,30.07,29.96,14,3,0,0.00
2013-7-14,82.0,64.4,51.8,62.6,56.3,51.3,98,79,43,30.10,29.90,14,3,0,0.06
2013-7-15,81.3,60.4,47.8,60.9,55.2,47.3,98,85,47,30.05,29.88,17,3,0,0.02
2013-7-16,83.3,66.2,50.4,61.4,53.0,45.9,98,67,34,30.10,29.88,12,4,0,0.00
2013-7-17,85.3,67.0,50.2,58.6,53.2,47.0,98,65,33,30.17,29.94,11,4,0,0.00
2013-7-18,84.0,63.2,48.4,61.0,55.4,47.9,98,79,44,30.13,29.93,12,4,0,0.00
2013-7-19,83.5,62.5,45.7,61.1,54.4,45.2,98,79,34,30.09,29.92,17,3,0,0.01
2013-7-20,82.0,67.8,46.6,63.1,52.8,44.9,98,63,37,30.03,29.77,9,2,0,0.00
2013-7-21,86.4,67.4,45.9,57.7,47.0,39.5,98,53,21,29.97,29.78,7,2,0,0.00
2013-7-22,80.6,65.9,48.2,55.4,47.2,41.4,89,53,30,30.04,29.84,5,2,0,0.00
2013-7-23,89.1,65.8,39.2,53.3,42.7,6.8,98,51,6,30.08,29.86,19,3,0,0.00
2013-7-24,75.2,60.3,51.1,55.8,49.7,44.8,95,69,46,30.14,29.95,14,2,0,0.00
2013-7-25,80.4,67.8,51.4,60.5,54.0,49.0,98,64,37,30.07,29.94,10,4,0,0.08
2013-7-26,83.8,67.5,42.4,58.1,48.5,40.6,98,57,24,30.17,29.96,10,3,0,0.00
2013-7-27,78.6,59.7,51.1,61.2,55.9,45.0,98,89,41,30.08,29.87,8,4,0,0.50
2013-7-28,67.1,57.9,53.6,63.1,56.4,53.0,98,95,79,29.94,29.80,6,1,0,0.36
2013-7-29,75.9,63.8,46.8,60.4,55.3,46.3,98,76,52,30.13,29.88,10,4,0,0.18
2013-7-30,78.6,60.5,44.6,60.9,49.2,44.1,98,71,33,30.23,30.10,10,2,0,0.00
2013-7-31,82.8,59.2,39.7,53.4,46.8,39.2,98,70,28,30.29,30.03,6,2,0,0.00
2013-8-1,68.9,56.3,43.7,60.7,52.1,43.2,98,87,66,30.16,30.00,10,2,0,0.09
2013-8-2,79.7,64.6,50.0,62.9,54.9,49.5,98,74,42,30.05,29.89,9,3,0,0.04
2013-8-3,80.8,60.7,48.0,62.6,53.3,47.5,98,79,46,30.10,29.97,7,2,0,0.00
2013-8-4,79.3,60.7,40.8,57.1,52.0,40.3,98,75,45,30.17,30.01,12,3,0,0.00
2013-8-5,80.2,60.6,45.7,61.5,53.8,45.2,98,81,46,30.11,29.92,10,3,0,0.00
2013-8-6,77.0,60.2,45.7,59.6,53.0,45.2,98,80,42,30.03,29.90,10,3,0,0.00
2013-8-7,62.6,54.8,50.0,59.5,52.2,49.5,98,91,72,30.01,29.91,6,2,0,0.13
2013-8-8,73.8,61.6,48.6,57.6,52.5,47.3,98,75,42,30.06,29.87,11,3,0,0.18
2013-8-9,74.8,62.2,48.7,57.2,50.7,45.0,98,69,38,30.12,29.97,10,4,0,0.01
2013-8-10,75.9,56.1,39.9,56.7,48.6,39.4,98,79,38,30.19,30.05,10,3,0,0.09
2013-8-11,76.1,56.5,39.6,55.4,46.7,39.1,98,74,38,30.20,29.97,6,2,0,0.00
2013-8-12,74.3,58.0,42.1,55.3,49.2,41.6,98,75,45,30.12,30.01,13,3,0,0.03
2013-8-13,76.5,58.3,37.2,56.7,47.0,36.7,98,70,33,30.17,30.01,7,2,0,0.02
2013-8-14,78.4,57.1,35.6,54.0,43.2,35.1,98,65,31,30.17,29.99,10,3,0,0.00
2013-8-15,77.9,54.5,33.4,52.0,42.3,32.9,98,69,29,30.18,30.01,14,2,0,0.00
2013-8-16,82.9,59.0,34.0,55.6,43.3,33.5,98,63,22,30.21,30.00,6,2,0,0.00
2013-8-17,84.6,59.6,36.0,54.5,44.5,35.5,98,63,23,30.18,29.95,8,2,0,0.01
2013-8-18,81.7,58.7,42.1,58.9,50.6,41.6,98,78,38,30.13,30.01,12,2,0,0.01
2013-8-19,84.7,59.2,40.6,54.9,49.6,40.1,98,75,32,30.17,29.92,10,2,0,0.00
2013-8-20,85.1,62.6,43.3,58.2,51.1,42.8,98,70,24,30.09,29.91,11,2,0,0.12
2013-8-21,84.2,61.1,41.4,60.2,52.2,40.9,98,75,40,30.11,29.96,11,2,0,0.00
2013-8-22,82.9,62.7,46.9,59.7,53.7,46.4,98,76,37,30.16,29.92,19,2,0,0.00
2013-8-23,77.0,61.1,46.8,59.3,52.3,46.3,98,76,47,30.04,29.83,10,2,0,0.01
2013-8-24,74.3,58.9,47.7,58.8,52.7,47.2,98,82,51,30.05,29.94,8,2,0,0.00
2013-8-25,75.2,61.4,49.1,61.7,55.8,48.6,98,84,60,30.13,30.00,7,3,0,0.00
2013-8-26,79.2,63.4,50.7,63.4,57.6,50.2,98,84,50,30.15,29.99,8,2,0,0.05
2013-8-27,82.8,60.9,-14.5,62.9,52.9,-14.7,99,78,40,30.13,29.88,6,2,0,0.01
2013-8-28,84.9,63.4,44.6,64.1,53.0,44.1,98,73,34,30.09,29.92,12,2,0,0.00
2013-8-29,85.6,71.3,50.4,61.2,54.2,45.0,98,58,25,30.17,29.98,12,4,0,0.00
2013-8-30,85.5,66.5,55.2,63.0,55.0,51.6,98,69,38,30.15,29.96,14,3,0,0.00
2013-8-31,83.1,63.4,46.6,60.9,54.1,46.1,98,74,38,30.09,29.92,9,2,0,0.00
2013-9-1,82.6,60.6,43.5,61.6,53.3,43.0,98,80,43,30.09,29.93,11,2,0,0.00
2013-9-2,82.4,64.2,51.4,62.4,56.2,50.9,98,78,40,30.11,29.91,6,2,0,0.08
2013-9-3,83.5,63.4,44.1,59.7,52.9,41.0,98,73,23,30.13,29.95,10,2,0,0.00
2013-9-4,85.3,62.6,47.3,60.9,53.9,46.8,98,77,34,30.18,30.02,12,2,0,0.00
2013-9-5,85.6,63.7,44.2,62.1,51.6,43.7,98,70,26,30.21,29.97,8,2,0,0.00
2013-9-6,86.2,63.6,41.4,58.9,50.0,40.9,98,66,24,30.20,29.92,12,2,0,0.00
2013-9-7,84.2,61.6,40.1,57.7,50.1,39.6,98,71,29,30.11,29.89,5,2,0,0.00
2013-9-8,81.7,62.9,47.3,58.7,52.3,46.8,98,71,39,30.01,29.77,9,2,0,0.00
2013-9-9,71.4,56.2,41.4,58.6,52.3,40.9,98,88,59,29.91,29.78,8,2,0,0.00
2013-9-10,69.4,57.1,48.9,60.6,54.9,48.4,98,93,65,29.97,29.85,10,3,0,0.03
2013-9-11,72.0,58.0,46.9,59.6,54.6,46.4,98,90,55,30.00,29.87,11,3,0,0.20
2013-9-12,73.0,55.0,42.4,62.1,51.8,41.9,98,90,59,30.08,29.84,17,2,0,0.31
2013-9-13,71.4,58.0,46.9,57.9,52.4,46.4,98,83,52,29.95,29.75,10,3,0,0.33
2013-9-14,70.0,55.5,46.6,56.7,51.5,46.1,98,88,58,29.88,29.78,13,3,0,0.01
2013-9-15,70.2,53.5,45.1,57.9,50.2,44.6,98,90,63,30.04,29.87,12,3,0,0.02
2013-9-16,69.1,52.6,37.4,56.7,47.9,36.9,98,86,58,30.11,29.90,9,2,0,0.00
2013-9-17,75.0,55.1,36.1,57.9,47.1,35.6,98,78,44,30.04,29.74,6,2,0,0.00
2013-9-18,72.7,53.3,41.2,58.9,48.8,40.7,98,87,51,29.86,29.73,12,3,0,0.14
2013-9-19,70.7,53.1,36.5,56.1,44.1,33.9,98,75,36,29.96,29.82,10,3,0,0.02
2013-9-20,73.4,49.3,27.3,47.7,37.6,26.8,98,70,28,30.05,29.84,8,2,0,0.00
2013-9-21,74.7,52.3,31.8,51.6,42.3,31.3,98,73,40,29.98,29.72,8,2,0,0.00
2013-9-22,61.3,47.2,39.4,56.0,45.8,38.9,98,95,73,29.74,29.49,12,3,0,0.48
2013-9-23,59.4,45.1,33.1,46.0,39.6,32.6,98,83,50,30.01,29.52,9,3,0,0.00
2013-9-24,67.6,44.9,25.3,45.4,36.5,24.8,98,76,39,30.10,29.79,6,1,0,0.00
2013-9-25,73.4,49.8,27.5,47.3,37.0,27.0,98,67,30,29.81,29.42,17,3,0,0.00
2013-9-26,71.1,53.2,31.3,42.5,35.1,29.9,98,56,24,29.62,29.46,19,7,0,0.00
2013-9-27,55.2,42.6,27.3,45.2,36.6,26.8,98,81,51,29.89,29.48,19,5,0,0.24
2013-9-28,57.6,37.3,19.4,36.8,29.4,18.9,98,77,26,30.08,29.90,6,1,0,0.07
2013-9-29,67.5,42.5,22.3,43.2,31.5,21.8,98,71,25,30.11,29.88,7,2,0,0.01
2013-9-30,72.5,46.5,26.1,48.1,35.5,25.6,98,70,36,29.98,29.75,8,2,0,0.00
2013-10-1,72.9,47.4,25.0,45.6,35.1,24.5,98,69,28,29.98,29.73,8,1,0,0.00
2013-10-2,69.3,45.5,24.1,41.2,33.9,23.6,98,70,29,29.94,29.68,8,2,0,0.00
2013-10-3,68.9,46.4,24.1,44.3,34.3,23.6,98,68,32,29.76,29.45,14,3,0,0.00
2013-10-4,46.0,34.6,25.2,33.8,27.0,19.2,98,76,48,29.99,29.54,13,6,0,0.00
2013-10-5,52.3,34.1,17.8,32.2,24.5,16.5,98,71,40,30.13,29.96,14,3,0,0.00
2013-10-6,64.0,37.7,14.9,37.2,26.9,14.4,98,71,34,30.22,30.00,6,2,0,0.00
2013-10-7,69.1,42.9,18.5,40.1,30.4,18.0,98,68,26,30.16,29.83,4,1,0,0.00
2013-10-8,69.6,45.3,24.4,42.4,32.8,23.9,98,67,32,29.89,29.59,8,2,0,0.00
2013-10-9,69.4,45.1,23.4,43.3,29.0,22.9,98,61,26,29.72,29.58,14,4,0,0.00
2013-10-10,52.7,41.5,34.0,39.6,34.9,27.8,98,79,55,29.69,29.42,14,5,0,0.12
2013-10-11,52.3,40.9,34.2,40.5,35.4,31.1,98,82,62,29.77,29.55,14,4,0,0.00
2013-10-12,55.2,43.2,27.3,37.4,31.5,26.2,98,66,47,29.91,29.78,7,3,0,0.00
2013-10-13,64.4,43.4,22.3,42.8,33.2,21.8,98,73,36,29.92,29.67,17,5,0,0.00
2013-10-14,50.4,39.4,32.0,39.6,34.0,31.0,98,83,56,29.89,29.73,14,4,0,0.03
2013-10-15,50.9,36.9,30.2,36.7,31.3,28.1,98,83,45,29.91,29.75,10,2,0,0.03
2013-10-16,46.2,33.5,20.5,34.9,28.7,20.0,98,84,48,29.92,29.79,11,2,0,0.08
2013-10-17,53.2,31.5,13.1,32.3,22.4,12.4,98,73,35,29.93,29.69,7,2,0,0.00
2013-10-18,27.0,23.7,19.9,21.8,20.7,19.3,98,89,78,29.74,29.72,2,0,0,0.00
2013-10-21,57.4,43.2,23.7,32.9,25.5,19.3,83,53,26,30.00,29.82,8,3,0,0.00
2013-10-22,62.4,36.3,12.7,32.2,23.8,12.2,98,67,30,30.12,29.87,6,2,0,0.00
2013-10-23,64.4,36.4,14.0,34.0,23.6,13.5,98,67,22,30.09,29.82,5,2,0,0.00
2013-10-24,64.8,37.0,15.3,32.8,23.1,14.4,98,63,26,30.09,29.86,5,1,0,0.00
2013-10-25,50.5,34.6,18.9,42.7,29.6,18.0,98,83,57,30.09,29.96,9,2,0,0.00
2013-10-26,60.3,37.9,23.4,40.6,30.5,22.9,98,79,31,30.18,29.97,7,2,0,0.00
2013-10-27,61.2,35.8,15.3,37.0,26.2,14.8,98,73,35,30.06,29.63,11,1,0,0.00
2013-10-28,63.3,44.6,23.4,36.3,28.1,22.9,98,59,26,29.68,29.52,16,6,0,0.16
2013-10-29,55.0,41.3,29.8,38.9,32.2,23.8,98,74,35,29.64,29.52,18,6,0,0.00
2013-10-30,41.5,28.4,13.8,32.9,24.9,13.3,98,88,60,29.69,29.55,10,2,0,0.06
2013-10-31,38.5,29.1,20.8,28.6,24.0,20.3,98,82,59,29.80,29.61,9,3,0,0.00
2013-11-1,48.7,32.4,19.0,33.9,25.4,18.5,98,78,46,30.06,29.79,15,3,0,0.00
2013-11-2,54.9,28.7,9.3,28.0,19.1,8.4,98,73,25,30.13,29.73,5,1,0,0.00
2013-11-3,59.5,34.0,12.6,34.0,23.1,11.2,98,70,34,29.73,29.35,11,4,0,0.00
2013-11-4,42.6,30.3,13.6,32.4,24.7,13.1,98,81,53,29.69,29.53,6,2,0,0.00
2013-11-5,40.1,27.2,8.1,31.9,19.5,6.9,98,75,43,29.99,29.54,14,4,0,0.00
2013-11-6,42.3,20.7,3.0,23.0,12.3,0.6,98,73,42,30.22,29.98,8,2,0,0.00
2013-11-7,49.8,24.8,6.6,26.1,16.6,5.0,98,75,39,30.30,29.95,5,1,0,0.00
2013-11-8,59.9,39.1,14.7,29.3,21.6,13.5,98,55,25,29.95,29.73,10,3,0,0.00
2013-11-9,57.9,30.1,10.0,28.5,18.8,9.5,98,69,29,30.06,29.87,5,2,0,0.00
2013-11-10,57.6,29.6,7.7,28.3,17.5,6.3,98,68,24,30.18,29.96,5,1,0,0.00
2013-11-11,57.9,30.1,8.1,28.8,18.4,7.7,98,68,30,30.27,30.04,6,2,0,0.00
2013-11-12,59.2,29.3,9.9,29.3,16.5,8.5,98,66,15,30.40,30.14,5,2,0,0.00
2013-11-13,52.7,28.6,6.8,25.9,16.8,5.4,98,66,32,30.28,29.85,4,1,0,0.00
2013-11-14,54.7,32.9,14.5,31.9,21.5,11.5,94,66,34,29.87,29.59,8,2,0,0.00
2013-11-15,48.0,26.7,10.0,34.7,22.9,9.1,98,87,43,29.60,29.29,11,3,0,0.02
2013-11-16,42.1,32.2,23.9,32.7,29.5,23.4,98,90,65,29.34,29.18,17,4,0,0.04
2013-11-17,61.7,31.6,13.3,39.3,25.5,12.8,98,81,38,29.95,29.32,6,1,0,0.15
2013-11-18,36.7,19.6,3.4,26.8,15.3,1.1,98,85,63,30.09,29.90,4,2,0,0.00
2013-11-19,37.6,28.9,14.9,27.1,23.5,13.7,96,81,62,29.86,29.63,6,2,0,0.00
2013-11-20,46.8,33.6,23.2,35.3,30.3,22.7,98,89,63,29.67,29.50,5,1,0,0.01
2013-11-21,41.0,34.1,30.7,38.5,33.3,30.2,98,97,86,29.86,29.56,5,1,0,0.10
2013-11-22,35.4,32.0,28.0,34.9,30.7,26.6,98,95,81,30.00,29.84,8,4,0,0.02
2013-11-23,38.3,31.4,22.8,32.7,28.1,22.3,98,88,75,30.04,29.85,9,4,0,0.02
2013-11-24,37.6,29.4,23.2,31.3,27.4,22.7,98,93,71,29.85,29.60,7,2,0,0.02
2013-11-25,35.8,24.3,12.6,28.4,21.8,11.9,98,91,73,30.02,29.62,5,2,0,0.00
2013-11-26,27.5,18.9,8.6,22.8,17.4,8.2,98,94,82,30.16,30.02,6,2,0,0.00
2013-11-27,28.9,15.9,6.6,21.9,13.9,5.0,98,92,73,30.13,29.90,4,2,0,0.00
2013-11-28,37.9,17.5,3.6,25.8,14.0,0.9,98,87,60,30.02,29.85,4,1,0,0.00
2013-11-29,38.5,18.4,3.2,24.8,14.3,0.5,98,86,57,30.12,29.94,5,1,0,0.00
2013-11-30,37.6,18.1,3.6,24.6,13.8,1.8,98,85,59,30.12,29.93,5,1,0,0.00
2013-12-1,36.3,20.4,1.6,25.1,15.1,-1.6,98,81,61,30.09,29.83,5,1,0,0.00
2013-12-2,48.0,34.8,21.2,31.4,25.1,20.7,98,70,44,29.84,29.42,8,2,0,0.00
2013-12-3,36.5,30.8,23.4,33.1,27.8,20.2,98,89,72,29.43,29.08,14,3,0,0.00
2013-12-4,34.2,20.8,-5.4,32.0,17.9,-9.2,98,89,72,29.53,28.95,11,3,0,0.00
2013-12-5,22.8,-1.8,-15.3,5.6,-8.0,-20.1,85,75,41,29.54,29.40,6,2,0,0.00
2013-12-6,27.1,-0.2,-16.1,10.0,-7.4,-21.6,86,73,38,29.71,29.49,4,1,0,0.00
2013-12-7,21.9,9.3,-5.1,13.3,5.0,-8.5,98,83,60,29.70,29.22,8,1,0,0.00
2013-12-8,29.3,5.5,-17.3,15.1,-2.6,-22.5,98,70,51,29.58,29.22,0,0,0,0.00
2013-12-9,22.6,-7.9,-24.3,5.6,-15.9,-30.6,80,69,45,30.05,29.58,0,0,0,0.00
2013-12-10,3.4,-13.5,-27.4,-9.4,-21.5,-34.2,79,67,45,30.12,29.89,5,1,0,0.00
2013-12-11,12.7,-4.6,-16.6,1.5,-11.1,-22.1,88,74,55,30.27,30.00,5,1,0,0.00
2013-12-12,12.4,-6.7,-20.4,2.6,-12.7,-26.6,88,75,60,30.32,29.91,4,0,0,0.00
2013-12-13,14.7,-2.5,-19.1,5.1,-8.1,-25.0,91,77,61,29.91,29.71,6,1,0,0.00
2013-12-14,21.4,1.0,-14.6,11.5,-4.5,-19.4,91,78,60,30.14,29.87,5,1,0,0.00
2013-12-15,22.8,2.9,-9.6,12.5,-2.3,-14.1,97,79,61,30.22,30.08,5,1,0,0.00
2013-12-16,25.0,3.0,-10.3,15.3,-1.8,-15.0,98,80,63,30.24,30.09,3,0,0,0.00
2013-12-17,25.5,3.9,-10.5,15.4,-1.1,-15.2,94,80,63,30.31,30.11,3,0,0,0.00
2013-12-18,21.7,10.8,-3.6,14.3,7.7,-7.0,98,88,71,30.11,29.63,4,0,0,0.00
2013-12-19,31.6,16.0,2.3,23.0,12.9,0.7,98,88,66,29.62,29.33,8,1,0,0.01
2013-12-20,40.1,18.9,2.3,29.7,16.3,0.7,98,91,66,29.42,29.28,4,0,0,0.04
2013-12-21,27.1,14.7,0.5,20.2,12.1,-1.7,98,90,70,29.53,29.21,5,1,0,0.01
2013-12-22,24.8,6.7,-11.7,13.2,1.5,-16.4,97,79,59,29.92,29.54,4,1,0,0.00
2013-12-23,35.4,19.4,4.3,22.7,14.2,3.4,98,82,57,30.13,29.92,8,2,0,0.00
2013-12-24,38.7,15.7,-2.4,27.7,11.2,-5.1,98,83,64,30.10,29.84,8,1,0,0.00
2013-12-25,18.9,-0.4,-14.3,7.7,-6.3,-19.2,93,76,56,30.24,30.10,5,1,0,0.00
2013-12-26,17.8,-2.3,-17.5,7.0,-8.4,-23.0,88,75,58,30.26,30.09,6,1,0,0.00
2013-12-27,22.6,1.2,-12.6,11.1,-4.6,-17.5,97,77,58,30.26,30.03,3,0,0,0.00
2013-12-28,19.9,5.2,-10.8,11.6,0.3,-15.5,96,80,65,30.02,29.67,4,0,0,0.00
2013-12-29,30.4,12.7,-2.9,20.4,8.8,-6.3,98,85,65,29.90,29.69,4,0,0,0.00
2013-12-30,28.0,6.2,-8.9,15.3,0.7,-12.9,97,79,55,30.04,29.85,6,1,0,0.00
2013-12-31,29.8,9.3,-5.8,18.6,5.0,-9.4,98,83,62,30.07,29.82,5,1,0,0.00
2014-1-1,41.5,22.3,1.4,26.5,15.8,-1.6,98,79,46,30.06,29.73,8,2,0,0.00
2014-1-2,25.9,5.9,-8.7,13.6,0.2,-12.5,97,78,56,30.16,29.98,4,1,0,0.00